sensor_id;sensor_type;location;lat;lon;timestamp;temperature;humidity
65207;SHT31;58477;48.072;11.970;2023-02-28T00:00:18;-3.65;85.38
65207;SHT31;58477;48.072;11.970;2023-02-28T00:02:45;-3.74;85.84
65207;SHT31;58477;48.072;11.970;2023-02-28T00:05:12;-3.70;86.03
65207;SHT31;58477;48.072;11.970;2023-02-28T00:07:38;-3.68;85.69
65207;SHT31;58477;48.072;11.970;2023-02-28T00:10:06;-3.70;85.79
65207;SHT31;58477;48.072;11.970;2023-02-28T00:12:33;-3.58;85.59
65207;SHT31;58477;48.072;11.970;2023-02-28T00:14:59;-3.61;85.86
65207;SHT31;58477;48.072;11.970;2023-02-28T00:17:24;-3.65;85.94
65207;SHT31;58477;48.072;11.970;2023-02-28T00:19:50;-3.65;85.90
65207;SHT31;58477;48.072;11.970;2023-02-28T00:22:18;-3.74;86.34
65207;SHT31;58477;48.072;11.970;2023-02-28T00:24:44;-3.84;86.36
65207;SHT31;58477;48.072;11.970;2023-02-28T00:27:09;-3.78;86.41
65207;SHT31;58477;48.072;11.970;2023-02-28T00:29:35;-3.82;86.55
65207;SHT31;58477;48.072;11.970;2023-02-28T00:32:03;-3.71;86.53
65207;SHT31;58477;48.072;11.970;2023-02-28T00:34:29;-3.81;86.68
65207;SHT31;58477;48.072;11.970;2023-02-28T00:36:55;-3.87;86.71
65207;SHT31;58477;48.072;11.970;2023-02-28T00:39:20;-3.87;86.89
65207;SHT31;58477;48.072;11.970;2023-02-28T00:41:47;-3.82;86.87
65207;SHT31;58477;48.072;11.970;2023-02-28T00:44:13;-3.81;86.62
65207;SHT31;58477;48.072;11.970;2023-02-28T00:46:38;-3.89;87.01
65207;SHT31;58477;48.072;11.970;2023-02-28T00:49:04;-3.84;86.85
65207;SHT31;58477;48.072;11.970;2023-02-28T00:51:29;-3.84;86.95
65207;SHT31;58477;48.072;11.970;2023-02-28T00:53:56;-3.85;86.86
65207;SHT31;58477;48.072;11.970;2023-02-28T00:56:23;-3.95;87.15
65207;SHT31;58477;48.072;11.970;2023-02-28T00:58:48;-3.92;87.03
65207;SHT31;58477;48.072;11.970;2023-02-28T01:01:13;-3.92;87.37
65207;SHT31;58477;48.072;11.970;2023-02-28T01:03:39;-3.98;87.40
65207;SHT31;58477;48.072;11.970;2023-02-28T01:06:04;-3.81;87.21
65207;SHT31;58477;48.072;11.970;2023-02-28T01:08:30;-3.84;86.87
65207;SHT31;58477;48.072;11.970;2023-02-28T01:10:55;-3.89;87.13
65207;SHT31;58477;48.072;11.970;2023-02-28T01:13:21;-3.95;87.28
65207;SHT31;58477;48.072;11.970;2023-02-28T01:15:55;-3.97;87.51
65207;SHT31;58477;48.072;11.970;2023-02-28T01:18:21;-3.95;87.57
65207;SHT31;58477;48.072;11.970;2023-02-28T01:20:46;-3.95;87.57
65207;SHT31;58477;48.072;11.970;2023-02-28T01:23:12;-3.98;87.84
65207;SHT31;58477;48.072;11.970;2023-02-28T01:25:37;-3.97;87.53
65207;SHT31;58477;48.072;11.970;2023-02-28T01:28:04;-4.05;87.85
65207;SHT31;58477;48.072;11.970;2023-02-28T01:30:31;-4.06;87.73
65207;SHT31;58477;48.072;11.970;2023-02-28T01:32:57;-3.99;87.83
65207;SHT31;58477;48.072;11.970;2023-02-28T01:35:24;-4.01;88.04
65207;SHT31;58477;48.072;11.970;2023-02-28T01:37:50;-4.11;88.13
65207;SHT31;58477;48.072;11.970;2023-02-28T01:40:15;-4.08;88.09
65207;SHT31;58477;48.072;11.970;2023-02-28T01:42:41;-3.97;88.36
65207;SHT31;58477;48.072;11.970;2023-02-28T01:45:16;-4.05;88.01
65207;SHT31;58477;48.072;11.970;2023-02-28T01:47:43;-4.05;88.26
65207;SHT31;58477;48.072;11.970;2023-02-28T01:50:14;-4.06;87.94
65207;SHT31;58477;48.072;11.970;2023-02-28T01:52:40;-4.09;88.34
65207;SHT31;58477;48.072;11.970;2023-02-28T01:55:08;-4.13;88.35
65207;SHT31;58477;48.072;11.970;2023-02-28T01:57:39;-4.18;88.49
65207;SHT31;58477;48.072;11.970;2023-02-28T02:00:11;-4.16;88.26
65207;SHT31;58477;48.072;11.970;2023-02-28T02:02:38;-4.12;88.34
65207;SHT31;58477;48.072;11.970;2023-02-28T02:05:09;-4.12;88.32
65207;SHT31;58477;48.072;11.970;2023-02-28T02:07:37;-4.11;88.46
65207;SHT31;58477;48.072;11.970;2023-02-28T02:10:46;-4.22;88.62
65207;SHT31;58477;48.072;11.970;2023-02-28T02:19:00;-4.18;88.92
65207;SHT31;58477;48.072;11.970;2023-02-28T02:25:04;-4.26;89.00
65207;SHT31;58477;48.072;11.970;2023-02-28T02:27:57;-4.25;88.98
65207;SHT31;58477;48.072;11.970;2023-02-28T02:33:09;-4.28;88.93
65207;SHT31;58477;48.072;11.970;2023-02-28T02:35:45;-4.25;89.08
65207;SHT31;58477;48.072;11.970;2023-02-28T02:40:56;-4.22;89.14
65207;SHT31;58477;48.072;11.970;2023-02-28T02:46:21;-4.30;89.40
65207;SHT31;58477;48.072;11.970;2023-02-28T02:48:50;-4.30;89.33
65207;SHT31;58477;48.072;11.970;2023-02-28T02:51:20;-4.32;89.52
65207;SHT31;58477;48.072;11.970;2023-02-28T02:53:52;-4.33;89.55
65207;SHT31;58477;48.072;11.970;2023-02-28T02:56:22;-4.32;89.63
65207;SHT31;58477;48.072;11.970;2023-02-28T02:58:51;-4.36;89.52
65207;SHT31;58477;48.072;11.970;2023-02-28T03:01:20;-4.39;89.63
65207;SHT31;58477;48.072;11.970;2023-02-28T03:03:55;-4.43;89.93
65207;SHT31;58477;48.072;11.970;2023-02-28T03:06:22;-4.42;90.11
65207;SHT31;58477;48.072;11.970;2023-02-28T03:08:47;-4.37;89.98
65207;SHT31;58477;48.072;11.970;2023-02-28T03:11:15;-4.46;90.11
65207;SHT31;58477;48.072;11.970;2023-02-28T03:17:04;-4.46;90.10
65207;SHT31;58477;48.072;11.970;2023-02-28T03:25:55;-4.57;90.91
65207;SHT31;58477;48.072;11.970;2023-02-28T03:31:44;-4.54;90.93
65207;SHT31;58477;48.072;11.970;2023-02-28T03:34:19;-4.56;91.00
65207;SHT31;58477;48.072;11.970;2023-02-28T03:36:52;-4.57;91.00
65207;SHT31;58477;48.072;11.970;2023-02-28T03:39:22;-4.60;91.14
65207;SHT31;58477;48.072;11.970;2023-02-28T03:41:57;-4.57;91.01
65207;SHT31;58477;48.072;11.970;2023-02-28T03:44:49;-4.53;90.82
65207;SHT31;58477;48.072;11.970;2023-02-28T03:47:19;-4.56;91.00
65207;SHT31;58477;48.072;11.970;2023-02-28T03:52:35;-4.57;91.23
65207;SHT31;58477;48.072;11.970;2023-02-28T03:55:07;-4.49;91.03
65207;SHT31;58477;48.072;11.970;2023-02-28T03:57:43;-4.60;91.31
65207;SHT31;58477;48.072;11.970;2023-02-28T04:00:23;-4.52;91.03
65207;SHT31;58477;48.072;11.970;2023-02-28T04:02:49;-4.50;90.91
65207;SHT31;58477;48.072;11.970;2023-02-28T04:05:19;-4.52;91.18
65207;SHT31;58477;48.072;11.970;2023-02-28T04:07:44;-4.63;91.38
65207;SHT31;58477;48.072;11.970;2023-02-28T04:10:11;-4.52;91.20
65207;SHT31;58477;48.072;11.970;2023-02-28T04:12:37;-4.52;90.99
65207;SHT31;58477;48.072;11.970;2023-02-28T04:15:03;-4.54;91.16
65207;SHT31;58477;48.072;11.970;2023-02-28T04:17:29;-4.56;91.14
65207;SHT31;58477;48.072;11.970;2023-02-28T04:19:54;-4.56;91.00
65207;SHT31;58477;48.072;11.970;2023-02-28T04:22:22;-4.59;91.39
65207;SHT31;58477;48.072;11.970;2023-02-28T04:24:51;-4.69;91.48
65207;SHT31;58477;48.072;11.970;2023-02-28T04:27:16;-4.66;91.77
65207;SHT31;58477;48.072;11.970;2023-02-28T04:29:41;-4.69;91.58
65207;SHT31;58477;48.072;11.970;2023-02-28T04:32:10;-4.63;91.62
65207;SHT31;58477;48.072;11.970;2023-02-28T04:34:35;-4.72;91.74
65207;SHT31;58477;48.072;11.970;2023-02-28T04:37:01;-4.74;92.19
65207;SHT31;58477;48.072;11.970;2023-02-28T04:39:28;-4.79;92.22
65207;SHT31;58477;48.072;11.970;2023-02-28T04:41:54;-4.72;92.47
65207;SHT31;58477;48.072;11.970;2023-02-28T04:44:20;-4.70;92.22
65207;SHT31;58477;48.072;11.970;2023-02-28T04:46:47;-4.69;92.36
65207;SHT31;58477;48.072;11.970;2023-02-28T04:49:13;-4.60;92.21
65207;SHT31;58477;48.072;11.970;2023-02-28T04:51:39;-4.64;92.08
65207;SHT31;58477;48.072;11.970;2023-02-28T04:54:05;-4.59;92.11
65207;SHT31;58477;48.072;11.970;2023-02-28T04:56:30;-4.59;92.06
65207;SHT31;58477;48.072;11.970;2023-02-28T04:58:56;-4.54;91.94
65207;SHT31;58477;48.072;11.970;2023-02-28T05:01:27;-4.43;91.84
65207;SHT31;58477;48.072;11.970;2023-02-28T05:03:54;-4.42;91.67
65207;SHT31;58477;48.072;11.970;2023-02-28T05:06:21;-4.37;91.42
65207;SHT31;58477;48.072;11.970;2023-02-28T05:08:49;-4.30;91.13
65207;SHT31;58477;48.072;11.970;2023-02-28T05:11:33;-4.11;90.82
65207;SHT31;58477;48.072;11.970;2023-02-28T05:14:05;-4.09;90.40
65207;SHT31;58477;48.072;11.970;2023-02-28T05:16:31;-4.21;90.88
65207;SHT31;58477;48.072;11.970;2023-02-28T05:18:57;-4.18;90.88
65207;SHT31;58477;48.072;11.970;2023-02-28T05:21:31;-4.11;90.71
65207;SHT31;58477;48.072;11.970;2023-02-28T05:24:01;-4.03;90.64
65207;SHT31;58477;48.072;11.970;2023-02-28T05:26:27;-4.03;90.36
65207;SHT31;58477;48.072;11.970;2023-02-28T05:28:53;-4.01;90.24
65207;SHT31;58477;48.072;11.970;2023-02-28T05:31:18;-4.01;90.53
65207;SHT31;58477;48.072;11.970;2023-02-28T05:33:44;-4.03;90.47
65207;SHT31;58477;48.072;11.970;2023-02-28T05:36:10;-4.01;90.60
65207;SHT31;58477;48.072;11.970;2023-02-28T05:38:35;-4.05;90.80
65207;SHT31;58477;48.072;11.970;2023-02-28T05:41:08;-3.98;90.53
65207;SHT31;58477;48.072;11.970;2023-02-28T05:43:34;-3.98;90.60
65207;SHT31;58477;48.072;11.970;2023-02-28T05:46:05;-3.82;90.02
65207;SHT31;58477;48.072;11.970;2023-02-28T05:48:32;-3.81;90.04
65207;SHT31;58477;48.072;11.970;2023-02-28T05:50:58;-3.85;90.15
65207;SHT31;58477;48.072;11.970;2023-02-28T05:53:24;-3.82;90.01
65207;SHT31;58477;48.072;11.970;2023-02-28T05:55:49;-3.84;90.50
65207;SHT31;58477;48.072;11.970;2023-02-28T05:58:15;-3.79;90.06
65207;SHT31;58477;48.072;11.970;2023-02-28T06:00:41;-3.78;89.53
65207;SHT31;58477;48.072;11.970;2023-02-28T06:03:06;-3.75;89.94
65207;SHT31;58477;48.072;11.970;2023-02-28T06:05:32;-3.65;89.70
65207;SHT31;58477;48.072;11.970;2023-02-28T06:07:58;-3.70;89.36
65207;SHT31;58477;48.072;11.970;2023-02-28T06:10:23;-3.57;89.30
65207;SHT31;58477;48.072;11.970;2023-02-28T06:12:49;-3.64;89.13
65207;SHT31;58477;48.072;11.970;2023-02-28T06:15:15;-3.51;89.27
65207;SHT31;58477;48.072;11.970;2023-02-28T06:17:43;-3.51;88.95
65207;SHT31;58477;48.072;11.970;2023-02-28T06:20:10;-3.47;88.70
65207;SHT31;58477;48.072;11.970;2023-02-28T06:22:38;-3.42;88.74
65207;SHT31;58477;48.072;11.970;2023-02-28T06:25:05;-3.51;88.87
65207;SHT31;58477;48.072;11.970;2023-02-28T06:27:32;-3.42;88.78
65207;SHT31;58477;48.072;11.970;2023-02-28T06:29:58;-3.34;88.90
65207;SHT31;58477;48.072;11.970;2023-02-28T06:32:23;-3.39;88.45
65207;SHT31;58477;48.072;11.970;2023-02-28T06:34:49;-3.21;88.42
65207;SHT31;58477;48.072;11.970;2023-02-28T06:37:15;-3.21;88.26
65207;SHT31;58477;48.072;11.970;2023-02-28T06:39:41;-3.17;88.15
65207;SHT31;58477;48.072;11.970;2023-02-28T06:42:06;-3.16;87.88
65207;SHT31;58477;48.072;11.970;2023-02-28T06:44:32;-3.19;87.87
65207;SHT31;58477;48.072;11.970;2023-02-28T06:47:04;-3.23;87.75
65207;SHT31;58477;48.072;11.970;2023-02-28T06:49:32;-3.23;87.95
65207;SHT31;58477;48.072;11.970;2023-02-28T06:51:57;-3.27;87.53
65207;SHT31;58477;48.072;11.970;2023-02-28T06:54:23;-3.06;87.54
65207;SHT31;58477;48.072;11.970;2023-02-28T06:56:49;-3.17;87.62
65207;SHT31;58477;48.072;11.970;2023-02-28T06:59:14;-3.12;87.41
65207;SHT31;58477;48.072;11.970;2023-02-28T07:01:40;-3.12;87.24
65207;SHT31;58477;48.072;11.970;2023-02-28T07:04:06;-3.14;87.59
65207;SHT31;58477;48.072;11.970;2023-02-28T07:06:32;-3.13;87.28
65207;SHT31;58477;48.072;11.970;2023-02-28T07:08:57;-2.99;87.15
65207;SHT31;58477;48.072;11.970;2023-02-28T07:11:25;-2.96;86.91
65207;SHT31;58477;48.072;11.970;2023-02-28T07:13:54;-2.90;86.86
65207;SHT31;58477;48.072;11.970;2023-02-28T07:16:20;-3.00;86.89
65207;SHT31;58477;48.072;11.970;2023-02-28T07:18:46;-2.85;86.95
65207;SHT31;58477;48.072;11.970;2023-02-28T07:21:12;-2.85;86.97
65207;SHT31;58477;48.072;11.970;2023-02-28T07:23:38;-2.80;86.62
65207;SHT31;58477;48.072;11.970;2023-02-28T07:26:05;-2.78;86.46
65207;SHT31;58477;48.072;11.970;2023-02-28T07:28:30;-2.80;86.60
65207;SHT31;58477;48.072;11.970;2023-02-28T07:30:56;-2.73;86.40
65207;SHT31;58477;48.072;11.970;2023-02-28T07:33:22;-2.83;86.43
65207;SHT31;58477;48.072;11.970;2023-02-28T07:35:49;-2.89;86.98
65207;SHT31;58477;48.072;11.970;2023-02-28T07:38:14;-2.83;86.84
65207;SHT31;58477;48.072;11.970;2023-02-28T07:40:40;-2.82;86.37
65207;SHT31;58477;48.072;11.970;2023-02-28T07:43:05;-2.79;86.67
65207;SHT31;58477;48.072;11.970;2023-02-28T07:45:31;-2.68;86.04
65207;SHT31;58477;48.072;11.970;2023-02-28T07:48:00;-2.76;86.01
65207;SHT31;58477;48.072;11.970;2023-02-28T07:50:25;-2.80;86.25
65207;SHT31;58477;48.072;11.970;2023-02-28T07:52:50;-2.73;86.37
65207;SHT31;58477;48.072;11.970;2023-02-28T07:55:16;-2.65;86.09
65207;SHT31;58477;48.072;11.970;2023-02-28T07:57:42;-2.59;85.77
65207;SHT31;58477;48.072;11.970;2023-02-28T08:00:09;-2.61;85.76
65207;SHT31;58477;48.072;11.970;2023-02-28T08:02:39;-2.62;86.00
65207;SHT31;58477;48.072;11.970;2023-02-28T08:05:05;-2.58;85.73
65207;SHT31;58477;48.072;11.970;2023-02-28T08:07:31;-2.58;85.73
65207;SHT31;58477;48.072;11.970;2023-02-28T08:09:57;-2.56;85.79
65207;SHT31;58477;48.072;11.970;2023-02-28T08:12:23;-2.65;85.86
65207;SHT31;58477;48.072;11.970;2023-02-28T08:14:48;-2.49;85.52
65207;SHT31;58477;48.072;11.970;2023-02-28T08:17:13;-2.40;85.38
65207;SHT31;58477;48.072;11.970;2023-02-28T08:19:39;-2.35;85.41
65207;SHT31;58477;48.072;11.970;2023-02-28T08:22:04;-2.37;85.62
65207;SHT31;58477;48.072;11.970;2023-02-28T08:24:29;-2.33;85.34
65207;SHT31;58477;48.072;11.970;2023-02-28T08:26:55;-2.21;85.40
65207;SHT31;58477;48.072;11.970;2023-02-28T08:29:21;-2.20;85.24
65207;SHT31;58477;48.072;11.970;2023-02-28T08:31:46;-1.80;84.82
65207;SHT31;58477;48.072;11.970;2023-02-28T08:34:13;-2.04;84.95
65207;SHT31;58477;48.072;11.970;2023-02-28T08:36:39;-1.95;85.12
65207;SHT31;58477;48.072;11.970;2023-02-28T08:39:05;-1.66;84.28
65207;SHT31;58477;48.072;11.970;2023-02-28T08:41:31;-1.73;84.61
65207;SHT31;58477;48.072;11.970;2023-02-28T08:43:57;-1.84;85.13
65207;SHT31;58477;48.072;11.970;2023-02-28T08:46:23;-2.08;84.98
65207;SHT31;58477;48.072;11.970;2023-02-28T08:48:52;-2.03;84.62
65207;SHT31;58477;48.072;11.970;2023-02-28T08:51:18;-2.15;84.58
65207;SHT31;58477;48.072;11.970;2023-02-28T08:53:47;-2.20;85.31
65207;SHT31;58477;48.072;11.970;2023-02-28T08:56:17;-2.07;84.79
65207;SHT31;58477;48.072;11.970;2023-02-28T08:58:43;-1.84;84.34
65207;SHT31;58477;48.072;11.970;2023-02-28T09:01:15;-1.77;83.86
65207;SHT31;58477;48.072;11.970;2023-02-28T09:03:41;-1.67;84.07
65207;SHT31;58477;48.072;11.970;2023-02-28T09:06:08;-1.52;83.86
65207;SHT31;58477;48.072;11.970;2023-02-28T09:08:34;-1.56;83.37
65207;SHT31;58477;48.072;11.970;2023-02-28T09:11:00;-1.53;83.32
65207;SHT31;58477;48.072;11.970;2023-02-28T09:13:27;-1.48;83.52
65207;SHT31;58477;48.072;11.970;2023-02-28T09:15:54;-1.62;83.90
65207;SHT31;58477;48.072;11.970;2023-02-28T09:18:20;-1.60;83.53
65207;SHT31;58477;48.072;11.970;2023-02-28T09:20:45;-1.59;83.53
65207;SHT31;58477;48.072;11.970;2023-02-28T09:23:12;-1.84;84.03
65207;SHT31;58477;48.072;11.970;2023-02-28T09:25:45;-1.80;84.01
65207;SHT31;58477;48.072;11.970;2023-02-28T09:28:11;-1.74;83.49
65207;SHT31;58477;48.072;11.970;2023-02-28T09:30:37;-1.91;84.08
65207;SHT31;58477;48.072;11.970;2023-02-28T09:33:03;-1.80;84.28
65207;SHT31;58477;48.072;11.970;2023-02-28T09:35:29;-1.58;83.48
65207;SHT31;58477;48.072;11.970;2023-02-28T09:37:56;-1.53;83.27
65207;SHT31;58477;48.072;11.970;2023-02-28T09:40:24;-1.42;83.21
65207;SHT31;58477;48.072;11.970;2023-02-28T09:42:53;-1.16;83.11
65207;SHT31;58477;48.072;11.970;2023-02-28T09:47:48;-1.04;82.04
65207;SHT31;58477;48.072;11.970;2023-02-28T09:50:50;-0.94;82.01
65207;SHT31;58477;48.072;11.970;2023-02-28T09:53:31;-0.78;81.27
65207;SHT31;58477;48.072;11.970;2023-02-28T09:56:39;-0.31;80.46
65207;SHT31;58477;48.072;11.970;2023-02-28T10:02:21;0.15;78.74
65207;SHT31;58477;48.072;11.970;2023-02-28T10:05:19;0.01;78.17
65207;SHT31;58477;48.072;11.970;2023-02-28T10:08:14;-0.58;79.44
65207;SHT31;58477;48.072;11.970;2023-02-28T10:10:45;-0.53;80.00
65207;SHT31;58477;48.072;11.970;2023-02-28T10:13:16;0.15;79.13
65207;SHT31;58477;48.072;11.970;2023-02-28T10:15:44;0.55;77.00
65207;SHT31;58477;48.072;11.970;2023-02-28T10:18:15;0.27;78.28
65207;SHT31;58477;48.072;11.970;2023-02-28T10:20:42;0.45;78.41
65207;SHT31;58477;48.072;11.970;2023-02-28T10:23:20;0.42;77.87
65207;SHT31;58477;48.072;11.970;2023-02-28T10:25:57;0.44;77.71
65207;SHT31;58477;48.072;11.970;2023-02-28T10:28:24;0.35;77.58
65207;SHT31;58477;48.072;11.970;2023-02-28T10:30:52;0.29;77.77
65207;SHT31;58477;48.072;11.970;2023-02-28T10:33:24;0.11;77.44
65207;SHT31;58477;48.072;11.970;2023-02-28T10:35:50;0.13;79.53
65207;SHT31;58477;48.072;11.970;2023-02-28T10:38:38;0.32;77.96
65207;SHT31;58477;48.072;11.970;2023-02-28T10:41:32;0.51;77.19
65207;SHT31;58477;48.072;11.970;2023-02-28T10:44:33;0.73;77.43
65207;SHT31;58477;48.072;11.970;2023-02-28T10:46:59;0.88;76.98
65207;SHT31;58477;48.072;11.970;2023-02-28T10:49:29;1.36;75.32
65207;SHT31;58477;48.072;11.970;2023-02-28T10:51:59;0.72;76.48
65207;SHT31;58477;48.072;11.970;2023-02-28T10:54:33;0.76;76.95
65207;SHT31;58477;48.072;11.970;2023-02-28T10:59:41;0.62;76.12
65207;SHT31;58477;48.072;11.970;2023-02-28T11:02:33;0.54;77.16
65207;SHT31;58477;48.072;11.970;2023-02-28T11:04:59;0.17;77.92
65207;SHT31;58477;48.072;11.970;2023-02-28T11:07:25;0.34;77.59
65207;SHT31;58477;48.072;11.970;2023-02-28T11:09:55;0.64;77.39
65207;SHT31;58477;48.072;11.970;2023-02-28T11:12:36;1.17;76.62
65207;SHT31;58477;48.072;11.970;2023-02-28T11:17:53;1.42;75.51
65207;SHT31;58477;48.072;11.970;2023-02-28T11:20:24;1.47;75.56
65207;SHT31;58477;48.072;11.970;2023-02-28T11:22:50;2.12;73.24
65207;SHT31;58477;48.072;11.970;2023-02-28T11:25:30;1.74;73.41
65207;SHT31;58477;48.072;11.970;2023-02-28T11:27:58;2.17;73.81
65207;SHT31;58477;48.072;11.970;2023-02-28T11:30:38;2.57;73.02
65207;SHT31;58477;48.072;11.970;2023-02-28T11:35:52;2.83;70.56
65207;SHT31;58477;48.072;11.970;2023-02-28T11:38:19;2.82;71.65
65207;SHT31;58477;48.072;11.970;2023-02-28T11:41:05;2.42;72.14
65207;SHT31;58477;48.072;11.970;2023-02-28T11:48:47;2.62;71.86
65207;SHT31;58477;48.072;11.970;2023-02-28T11:51:30;2.22;73.19
65207;SHT31;58477;48.072;11.970;2023-02-28T11:56:42;2.77;71.45
65207;SHT31;58477;48.072;11.970;2023-02-28T12:07:59;3.34;70.50
65207;SHT31;58477;48.072;11.970;2023-02-28T12:10:29;3.57;68.70
65207;SHT31;58477;48.072;11.970;2023-02-28T12:21:36;4.10;66.79
65207;SHT31;58477;48.072;11.970;2023-02-28T12:24:27;3.24;69.17
65207;SHT31;58477;48.072;11.970;2023-02-28T12:26:58;3.30;69.61
65207;SHT31;58477;48.072;11.970;2023-02-28T12:29:30;3.52;69.39
65207;SHT31;58477;48.072;11.970;2023-02-28T12:32:09;3.57;67.96
65207;SHT31;58477;48.072;11.970;2023-02-28T12:34:41;3.89;68.43
65207;SHT31;58477;48.072;11.970;2023-02-28T12:37:14;3.61;68.04
65207;SHT31;58477;48.072;11.970;2023-02-28T12:39:45;3.54;69.85
65207;SHT31;58477;48.072;11.970;2023-02-28T12:42:22;3.14;69.90
65207;SHT31;58477;48.072;11.970;2023-02-28T12:44:54;3.08;71.56
65207;SHT31;58477;48.072;11.970;2023-02-28T12:47:21;2.73;72.03
65207;SHT31;58477;48.072;11.970;2023-02-28T12:49:54;2.33;72.48
65207;SHT31;58477;48.072;11.970;2023-02-28T12:55:51;2.11;74.09
65207;SHT31;58477;48.072;11.970;2023-02-28T13:09:34;1.50;75.40
65207;SHT31;58477;48.072;11.970;2023-02-28T13:11:59;1.47;75.23
65207;SHT31;58477;48.072;11.970;2023-02-28T13:19:23;1.82;74.74
65207;SHT31;58477;48.072;11.970;2023-02-28T13:21:50;1.84;73.64
65207;SHT31;58477;48.072;11.970;2023-02-28T13:29:40;1.74;74.79
65207;SHT31;58477;48.072;11.970;2023-02-28T13:39:50;1.99;74.48
65207;SHT31;58477;48.072;11.970;2023-02-28T13:48:34;2.32;73.45
65207;SHT31;58477;48.072;11.970;2023-02-28T13:51:27;2.09;73.48
65207;SHT31;58477;48.072;11.970;2023-02-28T13:54:06;2.02;73.89
65207;SHT31;58477;48.072;11.970;2023-02-28T13:56:47;2.14;74.02
65207;SHT31;58477;48.072;11.970;2023-02-28T13:59:36;2.24;73.80
65207;SHT31;58477;48.072;11.970;2023-02-28T14:05:33;2.04;74.03
65207;SHT31;58477;48.072;11.970;2023-02-28T14:08:05;2.22;73.77
65207;SHT31;58477;48.072;11.970;2023-02-28T14:10:45;2.21;73.18
65207;SHT31;58477;48.072;11.970;2023-02-28T14:15:58;2.12;74.04
65207;SHT31;58477;48.072;11.970;2023-02-28T14:18:33;2.12;74.25
65207;SHT31;58477;48.072;11.970;2023-02-28T14:26:16;2.38;74.13
65207;SHT31;58477;48.072;11.970;2023-02-28T14:31:28;2.11;74.00
65207;SHT31;58477;48.072;11.970;2023-02-28T14:36:25;1.98;73.83
65207;SHT31;58477;48.072;11.970;2023-02-28T14:38:55;1.93;74.60
65207;SHT31;58477;48.072;11.970;2023-02-28T14:41:32;2.09;73.96
65207;SHT31;58477;48.072;11.970;2023-02-28T14:44:01;2.12;74.20
65207;SHT31;58477;48.072;11.970;2023-02-28T14:46:38;2.25;74.65
65207;SHT31;58477;48.072;11.970;2023-02-28T14:49:06;2.28;73.84
65207;SHT31;58477;48.072;11.970;2023-02-28T14:51:32;2.15;73.85
65207;SHT31;58477;48.072;11.970;2023-02-28T14:54:01;2.14;73.91
65207;SHT31;58477;48.072;11.970;2023-02-28T14:56:36;2.22;74.03
65207;SHT31;58477;48.072;11.970;2023-02-28T14:59:02;2.14;74.36
65207;SHT31;58477;48.072;11.970;2023-02-28T15:01:28;2.22;74.90
65207;SHT31;58477;48.072;11.970;2023-02-28T15:03:58;2.15;73.96
65207;SHT31;58477;48.072;11.970;2023-02-28T15:06:24;2.12;74.40
65207;SHT31;58477;48.072;11.970;2023-02-28T15:09:07;2.21;74.37
65207;SHT31;58477;48.072;11.970;2023-02-28T15:11:33;2.08;74.98
65207;SHT31;58477;48.072;11.970;2023-02-28T15:14:00;2.22;75.18
65207;SHT31;58477;48.072;11.970;2023-02-28T15:16:32;2.22;74.86
65207;SHT31;58477;48.072;11.970;2023-02-28T15:19:01;2.24;74.70
65207;SHT31;58477;48.072;11.970;2023-02-28T15:21:30;2.09;75.06
65207;SHT31;58477;48.072;11.970;2023-02-28T15:24:28;2.05;74.78
65207;SHT31;58477;48.072;11.970;2023-02-28T15:26:58;2.04;74.63
65207;SHT31;58477;48.072;11.970;2023-02-28T15:29:26;2.05;74.51
65207;SHT31;58477;48.072;11.970;2023-02-28T15:36:58;2.08;75.09
65207;SHT31;58477;48.072;11.970;2023-02-28T15:39:26;2.05;75.07
65207;SHT31;58477;48.072;11.970;2023-02-28T15:42:09;2.04;74.84
65207;SHT31;58477;48.072;11.970;2023-02-28T15:44:35;1.95;75.48
65207;SHT31;58477;48.072;11.970;2023-02-28T15:47:19;2.09;75.60
65207;SHT31;58477;48.072;11.970;2023-02-28T15:50:00;2.02;75.74
65207;SHT31;58477;48.072;11.970;2023-02-28T15:52:34;1.88;75.56
65207;SHT31;58477;48.072;11.970;2023-02-28T15:55:19;1.84;75.73
65207;SHT31;58477;48.072;11.970;2023-02-28T15:57:45;1.88;75.85
65207;SHT31;58477;48.072;11.970;2023-02-28T16:00:13;1.79;76.10
65207;SHT31;58477;48.072;11.970;2023-02-28T16:02:41;1.84;76.59
65207;SHT31;58477;48.072;11.970;2023-02-28T16:07:40;1.75;77.52
65207;SHT31;58477;48.072;11.970;2023-02-28T16:10:07;1.71;76.62
65207;SHT31;58477;48.072;11.970;2023-02-28T16:12:35;1.68;76.98
65207;SHT31;58477;48.072;11.970;2023-02-28T16:15:06;1.63;77.02
65207;SHT31;58477;48.072;11.970;2023-02-28T16:17:37;1.51;77.29
65207;SHT31;58477;48.072;11.970;2023-02-28T16:20:27;1.39;77.75
65207;SHT31;58477;48.072;11.970;2023-02-28T16:22:53;1.40;77.57
65207;SHT31;58477;48.072;11.970;2023-02-28T16:25:24;1.39;78.28
65207;SHT31;58477;48.072;11.970;2023-02-28T16:27:51;1.30;78.20
65207;SHT31;58477;48.072;11.970;2023-02-28T16:30:24;1.22;78.72
65207;SHT31;58477;48.072;11.970;2023-02-28T16:32:51;1.09;78.75
65207;SHT31;58477;48.072;11.970;2023-02-28T16:35:18;0.92;79.47
65207;SHT31;58477;48.072;11.970;2023-02-28T16:37:44;0.89;79.59
65207;SHT31;58477;48.072;11.970;2023-02-28T16:43:38;0.82;79.66
65207;SHT31;58477;48.072;11.970;2023-02-28T16:46:04;0.82;79.53
65207;SHT31;58477;48.072;11.970;2023-02-28T16:48:30;0.72;79.95
65207;SHT31;58477;48.072;11.970;2023-02-28T16:50:56;0.64;80.41
65207;SHT31;58477;48.072;11.970;2023-02-28T16:53:22;0.59;80.56
65207;SHT31;58477;48.072;11.970;2023-02-28T16:55:47;0.72;79.93
65207;SHT31;58477;48.072;11.970;2023-02-28T16:58:15;0.58;80.60
65207;SHT31;58477;48.072;11.970;2023-02-28T17:00:41;0.55;80.90
65207;SHT31;58477;48.072;11.970;2023-02-28T17:03:20;0.51;81.04
65207;SHT31;58477;48.072;11.970;2023-02-28T17:05:47;0.45;80.75
65207;SHT31;58477;48.072;11.970;2023-02-28T17:08:12;0.41;81.49
65207;SHT31;58477;48.072;11.970;2023-02-28T17:10:38;0.38;81.42
65207;SHT31;58477;48.072;11.970;2023-02-28T17:13:03;0.38;81.57
65207;SHT31;58477;48.072;11.970;2023-02-28T17:15:29;0.41;81.76
65207;SHT31;58477;48.072;11.970;2023-02-28T17:17:55;0.45;81.31
65207;SHT31;58477;48.072;11.970;2023-02-28T17:20:21;0.62;81.18
65207;SHT31;58477;48.072;11.970;2023-02-28T17:22:52;0.66;81.12
65207;SHT31;58477;48.072;11.970;2023-02-28T17:25:18;0.83;80.99
65207;SHT31;58477;48.072;11.970;2023-02-28T17:27:45;0.89;80.56
65207;SHT31;58477;48.072;11.970;2023-02-28T17:30:20;0.75;80.99
65207;SHT31;58477;48.072;11.970;2023-02-28T17:32:46;0.75;81.49
65207;SHT31;58477;48.072;11.970;2023-02-28T17:35:12;0.82;81.05
65207;SHT31;58477;48.072;11.970;2023-02-28T17:37:38;0.90;80.84
65207;SHT31;58477;48.072;11.970;2023-02-28T17:40:05;0.82;81.30
65207;SHT31;58477;48.072;11.970;2023-02-28T17:42:30;0.82;81.31
65207;SHT31;58477;48.072;11.970;2023-02-28T17:44:56;0.75;81.20
65207;SHT31;58477;48.072;11.970;2023-02-28T17:47:21;0.92;81.69
65207;SHT31;58477;48.072;11.970;2023-02-28T17:49:47;0.96;81.82
65207;SHT31;58477;48.072;11.970;2023-02-28T17:52:12;0.95;81.62
65207;SHT31;58477;48.072;11.970;2023-02-28T17:54:38;0.79;81.81